Time;durP1;ratioP1;P1;durP2;ratioP2;P2;SDS_P1;SDS_P2;PMS_P1;PMS_P2;Temp;Humidity;BMP_temperature;BMP_pressure;BME280_temperature;BME280_humidity;BME280_pressure;Samples;Min_cycle;Max_cycle;Signal;HPM_P1;HPM_P2
2021/08/15 00:00:55;;;;;;;22.97;20.67;;;16.80;99.90;;;;;;4878932;29;20205;-89
2021/08/15 00:03:43;;;;;;;24.73;21.47;;;16.70;99.90;;;;;;5088564;23;20288;-88
2021/08/15 00:06:20;;;;;;;26.97;22.27;;;16.60;99.90;;;;;;4846717;29;20258;-88
2021/08/15 00:08:58;;;;;;;23.63;21.13;;;16.60;99.90;;;;;;4853943;29;20204;-88
2021/08/15 00:11:34;;;;;;;27.07;22.30;;;16.60;99.90;;;;;;4877389;29;20208;-88
2021/08/15 00:14:06;;;;;;;25.53;21.60;;;16.50;99.90;;;;;;4838172;29;20291;-88
2021/08/15 00:25:58;;;;;;;24.20;21.60;;;16.40;99.90;;;;;;5327871;23;20251;-87
2021/08/15 00:28:31;;;;;;;26.30;21.73;;;16.30;99.90;;;;;;4886276;29;20203;-88
2021/08/15 00:31:01;;;;;;;24.83;22.13;;;16.30;99.90;;;;;;4901901;29;20210;-91
2021/08/15 00:33:35;;;;;;;25.20;22.47;;;16.20;99.90;;;;;;4869927;29;21457;-87
2021/08/15 00:36:14;;;;;;;28.20;23.97;;;16.20;99.90;;;;;;4874079;29;20208;-88
2021/08/15 00:38:49;;;;;;;28.33;24.00;;;16.20;99.90;;;;;;4872441;29;20211;-87
2021/08/15 00:41:20;;;;;;;27.00;24.10;;;16.20;99.90;;;;;;4867235;29;20212;-87
2021/08/15 00:43:53;;;;;;;28.60;25.23;;;16.20;99.90;;;;;;4865356;29;20260;-86
2021/08/15 00:46:25;;;;;;;29.20;24.27;;;16.20;99.90;;;;;;4890650;29;20232;-87
2021/08/15 01:01:13;;;;;;;28.87;25.80;;;16.00;99.90;;;;;;5199773;23;20244;-88
2021/08/15 01:03:44;;;;;;;29.53;26.33;;;16.00;99.90;;;;;;4871116;29;20259;-88
2021/08/15 01:06:22;;;;;;;33.93;27.37;;;15.90;99.90;;;;;;4861708;29;20212;-87
2021/08/15 01:09:26;;;;;;;29.70;26.47;;;15.90;99.90;;;;;;4877951;29;20197;-87
2021/08/15 01:12:10;;;;;;;29.87;26.10;;;15.90;99.90;;;;;;4870600;29;20266;-86
2021/08/15 01:14:40;;;;;;;33.73;27.77;;;15.90;99.90;;;;;;4858877;29;20293;-87
2021/08/15 01:17:15;;;;;;;30.83;26.90;;;15.80;99.90;;;;;;4894655;29;20225;-88
2021/08/15 01:19:45;;;;;;;30.70;27.40;;;15.80;99.90;;;;;;4871731;29;20690;-90
2021/08/15 01:22:16;;;;;;;29.40;26.40;;;15.70;99.90;;;;;;4856664;29;20265;-87
2021/08/15 01:24:47;;;;;;;31.57;27.80;;;15.70;99.90;;;;;;4865895;29;20208;-90
2021/08/15 01:30:22;;;;;;;32.20;27.67;;;15.70;99.90;;;;;;4873390;29;20246;-88
2021/08/15 01:32:55;;;;;;;33.50;28.57;;;15.70;99.90;;;;;;4882608;29;20624;-88
2021/08/15 01:35:25;;;;;;;33.87;29.43;;;15.70;99.90;;;;;;4864957;29;20276;-87
2021/08/15 01:38:05;;;;;;;32.30;27.63;;;15.70;99.90;;;;;;4868791;29;20212;-87
2021/08/15 01:40:46;;;;;;;33.53;28.73;;;15.60;99.90;;;;;;4862421;29;20760;-87
2021/08/15 01:43:25;;;;;;;31.37;26.30;;;15.70;99.90;;;;;;4877307;29;20256;-89
2021/08/15 01:46:11;;;;;;;32.50;26.50;;;15.80;99.90;;;;;;4846873;29;20218;-89
2021/08/15 01:49:03;;;;;;;31.10;27.03;;;15.60;99.90;;;;;;4862738;29;20765;-91
2021/08/15 01:51:43;;;;;;;30.33;26.77;;;15.50;99.90;;;;;;4861431;29;20221;-86
2021/08/15 01:54:16;;;;;;;30.77;26.53;;;15.50;99.90;;;;;;4862144;29;20246;-90
2021/08/15 01:56:46;;;;;;;30.83;26.50;;;15.50;99.90;;;;;;4843173;29;20213;-88
2021/08/15 01:59:17;;;;;;;30.03;26.43;;;15.40;99.90;;;;;;4845777;29;20212;-87
2021/08/15 02:01:48;;;;;;;30.97;27.67;;;15.40;99.90;;;;;;4885872;29;20212;-88
2021/08/15 02:04:28;;;;;;;29.47;25.67;;;15.50;99.90;;;;;;4871459;29;20228;-89
2021/08/15 02:07:02;;;;;;;31.23;26.80;;;15.40;99.90;;;;;;4882056;29;20192;-87
2021/08/15 02:09:33;;;;;;;29.90;26.70;;;15.50;99.90;;;;;;4850479;29;20672;-89
2021/08/15 02:12:07;;;;;;;29.73;25.67;;;15.40;99.90;;;;;;4847664;29;20242;-88
2021/08/15 02:24:30;;;;;;;28.43;25.27;;;15.50;99.90;;;;;;5764332;23;20233;-87
2021/08/15 02:27:00;;;;;;;28.20;24.37;;;15.30;99.90;;;;;;4858096;29;20201;-88
2021/08/15 02:29:31;;;;;;;27.00;24.07;;;15.30;99.90;;;;;;4833003;29;20222;-88
2021/08/15 02:32:03;;;;;;;28.17;24.93;;;15.20;99.90;;;;;;4837677;29;20212;-87
2021/08/15 02:34:57;;;;;;;28.17;25.17;;;15.20;99.90;;;;;;4861278;29;20178;-87
2021/08/15 02:37:32;;;;;;;29.10;25.97;;;15.10;99.90;;;;;;4853132;29;20212;-87
2021/08/15 02:40:07;;;;;;;29.27;26.07;;;15.10;99.90;;;;;;4836495;29;20283;-88
2021/08/15 02:42:50;;;;;;;30.00;26.23;;;15.00;99.90;;;;;;4825798;29;20213;-89
2021/08/15 02:49:17;;;;;;;29.57;26.50;;;15.10;99.90;;;;;;4843437;29;20242;-92
2021/08/15 02:52:34;;;;;;;29.67;26.57;;;15.30;99.90;;;;;;4777484;29;20235;-88
2021/08/15 02:55:18;;;;;;;28.80;25.77;;;15.20;99.90;;;;;;4770295;30;20213;-90
2021/08/15 02:57:50;;;;;;;28.60;25.67;;;15.10;99.90;;;;;;4756917;30;20221;-87
2021/08/15 03:00:24;;;;;;;31.10;26.70;;;15.00;99.90;;;;;;4773905;30;20325;-87
2021/08/15 03:02:58;;;;;;;31.70;26.43;;;15.00;99.90;;;;;;4747560;30;20224;-87
2021/08/15 03:05:35;;;;;;;30.60;27.17;;;15.10;99.90;;;;;;4759033;30;20613;-88
2021/08/15 03:08:15;;;;;;;33.17;28.13;;;15.00;99.90;;;;;;4745059;30;20355;-87
2021/08/15 03:11:31;;;;;;;32.10;28.70;;;15.00;99.90;;;;;;4776336;30;20239;-86
2021/08/15 03:14:22;;;;;;;32.13;28.47;;;15.00;99.90;;;;;;4768084;29;20246;-86
2021/08/15 03:16:52;;;;;;;32.47;26.20;;;15.00;99.90;;;;;;4765265;30;20220;-86
2021/08/15 03:19:21;;;;;;;33.83;29.17;;;15.00;99.90;;;;;;4785433;30;20204;-87
2021/08/15 03:21:51;;;;;;;33.17;28.47;;;15.00;99.90;;;;;;4802281;29;20275;-86
2021/08/15 03:27:39;;;;;;;34.87;26.57;;;15.00;99.90;;;;;;4786636;29;20196;-87
2021/08/15 03:30:12;;;;;;;30.37;27.13;;;15.10;99.90;;;;;;4823167;29;20217;-89
2021/08/15 03:33:03;;;;;;;30.83;27.00;;;15.00;99.90;;;;;;4849289;29;20214;-86
2021/08/15 03:39:44;;;;;;;30.47;25.23;;;15.10;99.90;;;;;;4775823;29;20639;-87
2021/08/15 03:42:15;;;;;;;29.60;25.70;;;15.10;99.90;;;;;;4791341;30;20222;-85
2021/08/15 03:44:46;;;;;;;29.23;25.63;;;15.10;99.90;;;;;;4804451;29;20272;-86
2021/08/15 03:47:16;;;;;;;29.30;25.50;;;15.10;99.90;;;;;;4788708;29;20204;-86
2021/08/15 03:49:48;;;;;;;31.17;26.37;;;15.10;99.90;;;;;;4797023;29;20232;-90
2021/08/15 03:52:17;;;;;;;29.40;26.23;;;15.20;99.90;;;;;;4808545;29;20302;-87
2021/08/15 03:54:51;;;;;;;28.70;25.60;;;15.20;99.90;;;;;;4791170;29;20227;-88
2021/08/15 03:57:22;;;;;;;29.33;26.23;;;15.20;99.90;;;;;;4788193;29;20207;-87
2021/08/15 03:59:54;;;;;;;28.10;25.10;;;15.30;99.90;;;;;;4811860;29;20211;-88
2021/08/15 04:05:31;;;;;;;29.70;25.20;;;15.40;99.90;;;;;;5851927;23;20503;-88
2021/08/15 04:08:03;;;;;;;27.27;24.47;;;15.50;99.90;;;;;;4860914;29;20225;-88
2021/08/15 04:10:33;;;;;;;29.67;26.50;;;15.50;99.90;;;;;;4841940;29;20209;-88
2021/08/15 04:13:05;;;;;;;29.60;25.20;;;15.60;99.90;;;;;;5251164;23;20203;-87
2021/08/15 04:15:37;;;;;;;30.03;26.53;;;15.60;99.90;;;;;;4860451;29;20222;-89
2021/08/15 04:18:11;;;;;;;28.50;25.33;;;15.70;99.90;;;;;;4873398;29;20229;-87
2021/08/15 04:20:42;;;;;;;29.60;25.37;;;15.80;99.90;;;;;;4859907;29;20212;-87
2021/08/15 04:50:58;;;;;;;24.30;21.70;;;16.90;99.90;;;;;;5563417;24;20268;-87
2021/08/15 04:53:51;;;;;;;23.77;21.23;;;17.10;99.90;;;;;;4872073;29;20213;-87
2021/08/15 05:09:20;;;;;;;20.50;18.50;;;18.40;99.90;;;;;;5382654;23;20680;-87
2021/08/15 05:18:10;;;;;;;19.37;16.77;;;19.30;99.90;;;;;;5863672;23;20214;31
2021/08/15 05:24:08;;;;;;;19.37;17.23;;;19.40;99.90;;;;;;3478213;23;20600;-86
2021/08/15 05:26:43;;;;;;;18.73;16.73;;;19.40;99.90;;;;;;4844811;29;20255;-88
2021/08/15 05:29:18;;;;;;;18.97;16.97;;;19.50;99.90;;;;;;4857609;29;20223;-90
2021/08/15 05:32:12;;;;;;;19.13;17.00;;;19.60;99.90;;;;;;4841367;29;20232;-89
2021/08/15 05:34:51;;;;;;;18.80;16.90;;;19.70;99.90;;;;;;4846522;29;20240;-90
2021/08/15 05:37:24;;;;;;;17.33;15.57;;;19.90;99.90;;;;;;4853383;29;20217;-87
2021/08/15 05:39:55;;;;;;;18.93;17.07;;;20.10;99.90;;;;;;4856935;29;20217;-87
2021/08/15 05:45:14;;;;;;;17.60;15.40;;;20.30;99.90;;;;;;5013618;23;20241;-91
2021/08/15 05:47:45;;;;;;;18.53;16.70;;;20.60;99.90;;;;;;4974002;23;20232;-89
2021/08/15 05:50:22;;;;;;;16.70;14.97;;;20.80;98.40;;;;;;4867610;29;20197;-89
2021/08/15 05:53:11;;;;;;;16.55;15.05;;;21.00;97.80;;;;;;4873520;29;20223;-88
2021/08/15 05:55:56;;;;;;;19.70;14.88;;;21.30;97.50;;;;;;5119595;23;20253;-91
2021/08/15 05:58:29;;;;;;;16.52;14.02;;;21.60;94.20;;;;;;4831700;29;20217;-88
2021/08/15 06:01:00;;;;;;;15.40;13.25;;;21.90;92.50;;;;;;4834337;29;20209;-90
2021/08/15 06:03:36;;;;;;;16.48;14.25;;;22.10;92.10;;;;;;4848827;29;20205;-89
2021/08/15 06:06:14;;;;;;;16.17;14.48;;;22.30;91.40;;;;;;4827807;29;20237;-89
2021/08/15 06:08:48;;;;;;;18.67;15.43;;;22.50;90.80;;;;;;4837148;29;20213;-90
2021/08/15 06:11:20;;;;;;;16.02;13.55;;;22.60;90.70;;;;;;4837869;29;20213;-90
2021/08/15 06:13:59;;;;;;;15.65;13.13;;;22.70;90.80;;;;;;4828259;29;20216;-88
2021/08/15 06:16:30;;;;;;;15.43;12.90;;;22.80;91.00;;;;;;4834565;29;20267;-90
2021/08/15 06:19:03;;;;;;;18.83;13.50;;;22.90;90.70;;;;;;4852740;29;20202;-89
2021/08/15 06:21:52;;;;;;;15.13;13.45;;;23.10;90.30;;;;;;4832538;29;20213;-88
2021/08/15 06:24:23;;;;;;;15.73;13.32;;;23.20;90.20;;;;;;4838872;29;20240;-89
2021/08/15 06:27:00;;;;;;;16.80;13.52;;;23.20;89.70;;;;;;4848412;29;20210;-89
2021/08/15 06:35:32;;;;;;;14.02;12.63;;;23.80;88.50;;;;;;4843592;29;20307;-88
2021/08/15 06:38:10;;;;;;;15.32;13.35;;;24.00;87.40;;;;;;4848300;29;20284;-92
2021/08/15 06:40:51;;;;;;;14.77;13.05;;;24.10;87.10;;;;;;4837135;29;20482;-89
2021/08/15 06:43:28;;;;;;;14.20;12.80;;;24.20;87.00;;;;;;4853548;29;20209;-89
2021/08/15 06:46:06;;;;;;;15.60;13.18;;;24.10;87.30;;;;;;4836168;29;20308;-90
2021/08/15 06:48:51;;;;;;;15.35;13.73;;;24.00;87.70;;;;;;4845538;29;20197;-90
2021/08/15 06:54:39;;;;;;;15.82;13.57;;;24.10;88.10;;;;;;5326484;23;20234;-89
2021/08/15 06:57:10;;;;;;;15.63;14.00;;;24.20;87.80;;;;;;4842598;29;20205;-90
2021/08/15 06:59:40;;;;;;;15.65;14.05;;;24.30;87.90;;;;;;4867282;29;20202;-87
2021/08/15 07:05:21;;;;;;;14.50;13.00;;;24.50;87.90;;;;;;4857352;29;20251;-88
2021/08/15 07:08:11;;;;;;;14.55;13.00;;;24.60;87.90;;;;;;4871011;29;20213;-90
2021/08/15 07:11:14;;;;;;;14.43;12.52;;;24.80;87.60;;;;;;4848348;29;20221;-91
2021/08/15 07:14:20;;;;;;;13.13;11.82;;;25.00;87.30;;;;;;4856923;29;20213;-88
2021/08/15 07:16:59;;;;;;;13.82;12.30;;;25.20;86.80;;;;;;4859381;29;20231;-92
2021/08/15 07:19:37;;;;;;;15.25;12.50;;;25.30;86.70;;;;;;4869638;29;20241;-89
2021/08/15 07:22:09;;;;;;;13.15;11.85;;;25.50;86.30;;;;;;4842868;29;20224;-89
2021/08/15 07:24:43;;;;;;;12.68;11.43;;;25.80;86.10;;;;;;4846390;29;20292;-90
2021/08/15 07:27:24;;;;;;;12.35;11.20;;;25.80;85.40;;;;;;4853028;29;20225;-89
2021/08/15 07:29:55;;;;;;;12.77;11.35;;;25.90;85.40;;;;;;4863633;29;20204;-88
2021/08/15 07:32:28;;;;;;;11.38;10.27;;;26.00;85.50;;;;;;4866679;29;20296;-90
2021/08/15 07:35:03;;;;;;;11.57;10.50;;;26.20;85.20;;;;;;4856390;29;20241;-90
2021/08/15 07:37:37;;;;;;;11.05;9.57;;;26.40;84.60;;;;;;4866747;29;20275;-90
2021/08/15 07:40:14;;;;;;;11.10;10.10;;;26.50;84.20;;;;;;4841662;29;20199;-90
2021/08/15 07:43:24;;;;;;;10.30;9.27;;;26.60;84.10;;;;;;4861557;29;20232;-88
2021/08/15 07:46:22;;;;;;;12.25;9.60;;;26.90;83.50;;;;;;4852685;29;20224;-90
2021/08/15 07:48:59;;;;;;;10.40;9.38;;;27.00;83.50;;;;;;4857601;29;20273;-89
2021/08/15 07:51:48;;;;;;;10.00;9.00;;;27.20;83.00;;;;;;4864724;29;20205;-92
2021/08/15 07:54:26;;;;;;;10.15;9.15;;;27.20;82.30;;;;;;4965707;24;20489;-89
2021/08/15 07:57:01;;;;;;;8.93;8.07;;;27.20;82.00;;;;;;4894170;23;20279;-90
2021/08/15 08:00:23;;;;;;;9.88;8.30;;;27.30;81.50;;;;;;4877341;29;20259;-90
2021/08/15 08:03:10;;;;;;;8.20;7.50;;;27.20;80.10;;;;;;4887219;29;20306;-90
2021/08/15 08:05:47;;;;;;;9.52;7.70;;;27.20;80.20;;;;;;4884249;29;20223;-89
2021/08/15 08:11:05;;;;;;;8.02;7.25;;;27.40;79.50;;;;;;4880562;29;20306;-89
2021/08/15 08:14:25;;;;;;;9.48;7.75;;;27.60;79.90;;;;;;4869760;29;20220;-89
2021/08/15 08:17:07;;;;;;;8.73;7.70;;;27.70;79.40;;;;;;4858195;29;20211;-88
2021/08/15 08:19:40;;;;;;;7.47;6.88;;;27.90;79.10;;;;;;4866543;29;20251;-89
2021/08/15 08:22:10;;;;;;;8.07;7.28;;;27.90;77.80;;;;;;4908980;29;20199;-89
2021/08/15 08:24:44;;;;;;;7.80;7.10;;;27.90;77.20;;;;;;4893942;29;20208;-89
2021/08/15 08:27:20;;;;;;;7.93;7.25;;;27.70;76.50;;;;;;4870391;29;20259;-89
2021/08/15 08:30:18;;;;;;;8.27;7.47;;;27.60;76.80;;;;;;4891893;29;20187;-90
2021/08/15 08:47:11;;;;;;;8.25;7.45;;;27.70;76.60;;;;;;5076347;27;20584;-91
2021/08/15 08:49:49;;;;;;;7.75;6.95;;;27.70;74.90;;;;;;5053503;28;20210;-86
2021/08/15 08:52:24;;;;;;;7.70;7.00;;;27.70;74.60;;;;;;5055493;28;20232;-90
2021/08/15 08:55:05;;;;;;;8.18;7.38;;;27.80;75.40;;;;;;5057363;28;20283;-88
2021/08/15 08:57:37;;;;;;;8.55;6.75;;;28.10;75.50;;;;;;5063634;28;20186;-90
2021/08/15 09:03:04;;;;;;;8.80;6.95;;;28.70;74.50;;;;;;5537573;23;20243;-90
2021/08/15 09:05:56;;;;;;;7.93;6.45;;;28.90;74.10;;;;;;5216773;23;20393;-87
2021/08/15 09:08:55;;;;;;;8.75;7.85;;;28.70;72.20;;;;;;5035491;28;20208;-88
2021/08/15 09:11:29;;;;;;;8.48;7.68;;;28.20;73.40;;;;;;5045063;28;20218;-88
2021/08/15 09:20:49;;;;;;;9.75;8.80;;;27.70;74.80;;;;;;5036227;28;20296;-88
2021/08/15 09:24:11;;;;;;;9.45;8.50;;;28.00;75.10;;;;;;5348093;23;20242;31
2021/08/15 09:27:10;;;;;;;8.10;7.28;;;28.20;74.70;;;;;;5279301;23;20320;-88
2021/08/15 09:29:44;;;;;;;8.02;7.32;;;28.30;74.40;;;;;;5038428;28;20295;-88
2021/08/15 09:32:27;;;;;;;7.85;6.65;;;28.30;73.80;;;;;;5013191;28;20210;-88
2021/08/15 09:41:31;;;;;;;7.03;6.30;;;28.20;72.10;;;;;;5341104;23;21129;-87
2021/08/15 09:44:29;;;;;;;7.03;6.32;;;27.90;71.80;;;;;;5050495;23;20236;-87
2021/08/15 09:47:17;;;;;;;6.90;6.20;;;27.70;71.90;;;;;;5806298;23;20331;31
2021/08/15 09:49:57;;;;;;;7.07;6.38;;;27.60;71.90;;;;;;4367800;23;20521;-87
2021/08/15 09:59:09;;;;;;;5.85;5.35;;;27.60;71.50;;;;;;4838010;23;20245;-88
2021/08/15 10:04:53;;;;;;;6.88;5.93;;;27.50;71.60;;;;;;4995983;23;20219;-88
2021/08/15 10:10:43;;;;;;;7.53;6.03;;;27.30;71.10;;;;;;5107843;23;21167;-87
2021/08/15 10:13:19;;;;;;;7.57;5.85;;;27.30;71.90;;;;;;4899527;29;20180;-87
2021/08/15 10:16:10;;;;;;;8.70;6.28;;;27.30;71.40;;;;;;4893715;29;20445;-91
2021/08/15 10:18:43;;;;;;;6.43;5.82;;;27.30;71.30;;;;;;4885805;29;20208;-89
2021/08/15 10:25:13;;;;;;;6.68;6.05;;;27.60;71.90;;;;;;4889984;29;20223;-87
2021/08/15 10:28:07;;;;;;;6.70;5.45;;;27.80;71.90;;;;;;4881841;29;20214;-89
2021/08/15 10:35:36;;;;;;;5.85;5.25;;;28.10;71.30;;;;;;4861062;29;20252;-90
2021/08/15 10:45:07;;;;;;;6.63;5.30;;;27.80;70.20;;;;;;4783764;27;20231;-91
2021/08/15 10:48:27;;;;;;;5.88;5.13;;;27.70;71.70;;;;;;4892485;29;20211;-84
2021/08/15 10:51:09;;;;;;;7.40;5.85;;;27.70;70.20;;;;;;4869063;29;20244;-87
2021/08/15 10:53:49;;;;;;;6.50;5.63;;;27.60;69.80;;;;;;4894851;29;20223;-87
2021/08/15 11:02:42;;;;;;;5.20;4.70;;;27.60;70.50;;;;;;4901540;29;20210;-87
2021/08/15 11:28:11;;;;;;;6.68;4.65;;;27.90;69.80;;;;;;4898782;29;20218;-91
2021/08/15 11:31:41;;;;;;;5.68;5.10;;;27.80;69.70;;;;;;4893927;29;20230;-89
2021/08/15 11:35:12;;;;;;;6.05;4.95;;;27.70;70.40;;;;;;4873578;29;20275;-91
2021/08/15 11:38:16;;;;;;;5.65;5.05;;;27.70;69.40;;;;;;4853208;29;20248;-89
2021/08/15 11:41:00;;;;;;;5.03;4.53;;;27.90;69.60;;;;;;4839194;29;20238;-89
2021/08/15 11:43:40;;;;;;;5.75;4.55;;;28.10;68.20;;;;;;4861860;29;20220;-88
2021/08/15 11:46:17;;;;;;;10.50;4.97;;;28.30;68.00;;;;;;4846477;29;20249;-89
2021/08/15 11:48:58;;;;;;;6.18;4.80;;;28.30;68.00;;;;;;4859435;29;20213;-89
2021/08/15 11:51:27;;;;;;;5.03;4.53;;;28.40;67.40;;;;;;4853640;29;20202;-88
2021/08/15 11:54:01;;;;;;;6.95;4.60;;;28.40;67.40;;;;;;4851397;29;20223;-89
2021/08/15 11:56:32;;;;;;;5.82;4.85;;;28.50;67.80;;;;;;4866195;29;20243;-93
2021/08/15 11:59:03;;;;;;;5.53;4.57;;;28.50;68.50;;;;;;4861382;29;20217;-89
2021/08/15 12:01:33;;;;;;;5.10;4.60;;;28.50;67.60;;;;;;4864230;29;20293;-88
2021/08/15 12:04:10;;;;;;;4.80;4.40;;;28.60;67.70;;;;;;4867780;29;20209;-87
2021/08/15 12:06:52;;;;;;;5.25;4.35;;;28.80;67.50;;;;;;4861959;29;20245;-89
2021/08/15 12:09:28;;;;;;;5.15;4.22;;;28.90;67.80;;;;;;4853021;29;20204;-85
2021/08/15 12:12:13;;;;;;;4.97;4.47;;;28.90;67.00;;;;;;4878280;29;20207;-89
2021/08/15 12:18:01;;;;;;;4.82;4.32;;;29.10;66.60;;;;;;4743234;23;20245;-88
2021/08/15 12:20:44;;;;;;;5.03;4.25;;;29.00;66.80;;;;;;4860713;29;20649;-89
2021/08/15 12:23:20;;;;;;;7.95;4.35;;;29.10;67.00;;;;;;4856723;29;20208;-87
2021/08/15 12:26:16;;;;;;;5.10;4.60;;;29.10;66.50;;;;;;4858992;29;20227;-88
2021/08/15 12:29:24;;;;;;;5.75;4.45;;;29.20;66.70;;;;;;4866842;29;20213;-89
2021/08/15 12:32:08;;;;;;;6.32;4.80;;;29.30;67.00;;;;;;5024509;24;20933;-86
2021/08/15 12:34:47;;;;;;;4.93;4.40;;;29.20;66.40;;;;;;4885506;29;20212;-87
2021/08/15 12:37:30;;;;;;;5.38;4.80;;;29.10;66.10;;;;;;4879715;29;20262;-89
2021/08/15 12:40:06;;;;;;;5.93;4.60;;;29.10;66.20;;;;;;4874382;29;20302;-89
2021/08/15 12:42:53;;;;;;;4.90;4.40;;;29.10;66.30;;;;;;4875858;29;20211;-92
2021/08/15 12:45:40;;;;;;;6.82;4.60;;;29.10;66.50;;;;;;4875299;29;20213;-86
2021/08/15 12:48:16;;;;;;;4.82;4.40;;;29.20;66.90;;;;;;4875170;29;20215;-88
2021/08/15 12:50:58;;;;;;;5.68;4.45;;;29.30;66.80;;;;;;4866984;29;20265;-87
2021/08/15 12:53:33;;;;;;;5.50;5.00;;;29.40;67.00;;;;;;4880818;29;20263;-87
2021/08/15 12:56:19;;;;;;;5.63;4.55;;;29.50;66.40;;;;;;4873678;29;20246;-89
2021/08/15 12:58:50;;;;;;;4.80;4.28;;;29.60;66.30;;;;;;4877957;29;20311;-85
2021/08/15 13:01:25;;;;;;;5.53;4.60;;;29.50;65.50;;;;;;4870500;29;20268;-89
2021/08/15 13:04:06;;;;;;;6.40;4.40;;;29.40;65.70;;;;;;4873498;29;20257;-91
2021/08/15 13:06:43;;;;;;;4.55;4.15;;;29.60;66.60;;;;;;4871390;29;20221;-87
2021/08/15 13:09:17;;;;;;;7.05;4.50;;;29.70;64.90;;;;;;4867543;29;20402;-88
2021/08/15 13:12:00;;;;;;;4.93;4.45;;;29.70;65.10;;;;;;4869500;29;20214;-91
2021/08/15 13:14:42;;;;;;;4.40;3.97;;;29.70;65.20;;;;;;4879936;29;20207;-88
2021/08/15 13:17:15;;;;;;;4.97;3.58;;;29.90;63.80;;;;;;4866915;29;20235;-88
2021/08/15 13:19:47;;;;;;;3.80;3.50;;;29.60;63.40;;;;;;4882518;29;20211;-87
2021/08/15 13:22:32;;;;;;;4.10;3.70;;;29.30;63.30;;;;;;4885589;29;20210;-91
2021/08/15 13:25:35;;;;;;;6.40;4.20;;;29.40;63.90;;;;;;4880917;29;20228;-89
2021/08/15 13:28:10;;;;;;;4.47;4.05;;;29.40;64.40;;;;;;4875618;29;20211;-88
2021/08/15 13:34:14;;;;;;;4.15;3.35;;;29.50;63.00;;;;;;4878528;29;20715;-90
2021/08/15 13:37:14;;;;;;;4.82;3.63;;;29.60;62.70;;;;;;5402181;23;20543;-86
2021/08/15 13:43:15;;;;;;;5.55;4.07;;;30.00;62.40;;;;;;4889607;29;20295;-87
2021/08/15 13:48:54;;;;;;;6.88;3.67;;;30.10;61.80;;;;;;4855263;29;20718;-88
2021/08/15 13:54:19;;;;;;;5.50;3.70;;;29.70;61.70;;;;;;4739188;27;20228;-86
2021/08/15 13:57:05;;;;;;;4.45;3.50;;;29.40;61.40;;;;;;4884946;29;20236;-88
2021/08/15 13:59:45;;;;;;;5.38;3.70;;;29.40;61.70;;;;;;4886301;29;20192;-89
2021/08/15 14:02:23;;;;;;;6.55;3.92;;;29.20;62.10;;;;;;4891017;29;20222;-87
2021/08/15 14:05:01;;;;;;;4.30;3.75;;;29.30;61.70;;;;;;4885619;29;20233;-88
2021/08/15 14:07:44;;;;;;;4.85;3.60;;;29.30;62.00;;;;;;5050227;23;20243;-88
2021/08/15 14:13:18;;;;;;;4.10;3.65;;;29.60;61.70;;;;;;4998948;23;20283;-87
2021/08/15 14:15:52;;;;;;;4.35;3.90;;;29.60;61.90;;;;;;4889033;29;20219;-88
2021/08/15 14:18:24;;;;;;;4.75;3.67;;;29.90;61.80;;;;;;4988257;24;20247;-90
2021/08/15 14:21:00;;;;;;;4.35;3.70;;;30.40;62.20;;;;;;4886542;29;20377;-88
2021/08/15 14:23:35;;;;;;;4.18;3.78;;;30.70;61.20;;;;;;4893832;23;20271;-89
2021/08/15 14:26:08;;;;;;;5.72;3.88;;;31.10;61.00;;;;;;4879720;29;20226;-84
2021/08/15 14:28:53;;;;;;;3.90;3.53;;;31.30;60.90;;;;;;4887668;29;20188;-89
2021/08/15 14:31:51;;;;;;;5.93;3.60;;;31.90;61.50;;;;;;4892138;29;20212;-86
2021/08/15 14:34:25;;;;;;;5.10;3.97;;;32.70;60.50;;;;;;4877490;29;20196;-85
2021/08/15 14:36:58;;;;;;;3.92;3.63;;;32.90;59.00;;;;;;4887347;29;20546;-86
2021/08/15 14:39:31;;;;;;;6.47;3.75;;;32.70;58.80;;;;;;4880382;29;20204;-86
2021/08/15 14:42:05;;;;;;;5.05;3.55;;;32.70;58.30;;;;;;4884873;29;20212;-87
2021/08/15 14:44:42;;;;;;;4.22;3.83;;;32.60;57.80;;;;;;4885481;29;20225;-87
2021/08/15 14:47:16;;;;;;;6.70;3.70;;;32.60;57.50;;;;;;4880302;29;20192;-88
2021/08/15 14:49:54;;;;;;;4.78;3.33;;;32.80;57.10;;;;;;4877002;29;20238;-87
2021/08/15 14:55:20;;;;;;;4.07;3.33;;;33.60;56.90;;;;;;4885448;29;20205;-88
2021/08/15 14:57:54;;;;;;;4.95;3.60;;;33.60;56.50;;;;;;4875721;29;20231;-88
2021/08/15 15:03:32;;;;;;;4.47;3.65;;;34.20;55.80;;;;;;5080806;23;20260;-87
2021/08/15 15:06:05;;;;;;;5.07;3.60;;;34.40;55.80;;;;;;4880153;29;20196;-88
2021/08/15 15:08:44;;;;;;;3.78;3.47;;;34.20;55.40;;;;;;4873132;29;20204;-89
2021/08/15 15:11:13;;;;;;;5.18;3.63;;;34.20;55.00;;;;;;4887728;29;20215;-90
2021/08/15 15:13:45;;;;;;;4.00;3.45;;;33.70;54.40;;;;;;4892629;29;20269;-86
2021/08/15 15:16:17;;;;;;;4.00;3.60;;;33.10;53.80;;;;;;4879817;29;20512;-88
2021/08/15 15:18:50;;;;;;;4.30;3.85;;;32.00;53.30;;;;;;4893676;29;20236;-89
2021/08/15 15:21:21;;;;;;;6.05;3.65;;;31.50;54.20;;;;;;4888600;29;20552;-88
2021/08/15 15:23:51;;;;;;;4.40;3.55;;;30.90;55.40;;;;;;4883428;29;20216;-86
2021/08/15 15:26:21;;;;;;;4.30;3.47;;;30.30;55.00;;;;;;4876171;29;20208;-88
2021/08/15 15:29:04;;;;;;;6.85;4.13;;;29.80;55.50;;;;;;4869092;29;20219;-88
2021/08/15 15:31:41;;;;;;;3.60;3.30;;;29.50;56.30;;;;;;4893862;29;20220;-88
2021/08/15 15:34:10;;;;;;;7.43;3.88;;;29.50;56.10;;;;;;4888357;29;20193;-89
2021/08/15 15:36:41;;;;;;;5.07;3.83;;;29.80;57.30;;;;;;4884182;29;20224;-87
2021/08/15 15:39:13;;;;;;;3.58;3.28;;;30.00;56.10;;;;;;4873035;29;20209;-84
2021/08/15 15:41:47;;;;;;;5.40;3.60;;;29.80;55.60;;;;;;4883471;29;20260;-89
2021/08/15 15:44:24;;;;;;;3.92;3.50;;;29.50;56.30;;;;;;4877329;29;20207;-87
2021/08/15 15:46:54;;;;;;;3.97;3.33;;;29.30;55.70;;;;;;4876465;29;20252;-88
2021/08/15 15:49:24;;;;;;;5.38;3.60;;;29.30;56.80;;;;;;4876769;29;20216;-88
2021/08/15 15:54:54;;;;;;;6.00;3.83;;;29.60;56.80;;;;;;4962556;23;20235;-87
2021/08/15 15:57:26;;;;;;;4.70;3.60;;;29.70;56.50;;;;;;4863702;29;20233;-86
2021/08/15 15:59:59;;;;;;;4.57;3.58;;;29.60;56.00;;;;;;4875366;29;20213;-87
2021/08/15 16:02:29;;;;;;;3.75;3.40;;;29.50;55.90;;;;;;4861687;29;21086;-90
2021/08/15 16:05:00;;;;;;;5.03;3.38;;;29.30;56.40;;;;;;4855461;29;20221;-88
2021/08/15 16:07:36;;;;;;;3.92;3.38;;;29.20;56.70;;;;;;4864223;29;20211;-88
2021/08/15 16:10:11;;;;;;;4.60;3.67;;;29.00;57.50;;;;;;4864992;29;20212;-86
2021/08/15 16:12:41;;;;;;;3.80;3.30;;;28.60;57.60;;;;;;4862673;29;20205;-89
2021/08/15 16:15:17;;;;;;;5.25;3.70;;;28.10;57.90;;;;;;4853765;29;20218;-88
2021/08/15 16:17:47;;;;;;;6.50;3.78;;;27.80;58.60;;;;;;4944196;24;20208;-90
2021/08/15 16:20:30;;;;;;;4.32;3.60;;;27.50;59.20;;;;;;4889522;29;20203;-88
2021/08/15 16:23:01;;;;;;;4.05;3.53;;;27.40;58.90;;;;;;4882482;29;20232;-84
2021/08/15 16:25:34;;;;;;;4.70;3.30;;;27.40;58.20;;;;;;4890124;29;20274;-85
2021/08/15 16:28:11;;;;;;;4.50;3.40;;;27.30;58.50;;;;;;4879116;29;20201;-88
2021/08/15 16:30:48;;;;;;;4.93;3.33;;;27.20;58.10;;;;;;4886146;29;20208;-90
2021/08/15 16:33:18;;;;;;;5.22;3.50;;;27.20;59.00;;;;;;4890307;29;20188;-89
2021/08/15 16:35:52;;;;;;;4.47;3.25;;;27.10;59.10;;;;;;4893257;29;20228;-88
2021/08/15 16:38:22;;;;;;;7.55;3.30;;;27.10;58.80;;;;;;4891135;29;20244;-86
2021/08/15 16:40:52;;;;;;;4.07;3.55;;;27.10;59.60;;;;;;4887472;29;20229;-89
2021/08/15 16:43:22;;;;;;;5.95;3.80;;;27.00;59.60;;;;;;4879710;29;20237;-87
2021/08/15 16:45:59;;;;;;;3.47;3.17;;;27.00;59.70;;;;;;4896900;29;20217;-89
2021/08/15 16:48:34;;;;;;;4.50;3.55;;;27.00;59.70;;;;;;4891451;29;20217;-88
2021/08/15 16:51:05;;;;;;;4.03;3.60;;;26.90;59.30;;;;;;4889763;29;20195;-88
2021/08/15 16:53:35;;;;;;;4.85;3.35;;;26.80;60.20;;;;;;4889230;29;20194;-85
2021/08/15 16:56:21;;;;;;;9.13;3.80;;;26.70;60.70;;;;;;4883023;29;20279;-87
2021/08/15 16:58:58;;;;;;;5.90;3.83;;;26.60;61.70;;;;;;4884965;29;20240;-89
2021/08/15 17:01:51;;;;;;;4.20;3.47;;;26.50;61.20;;;;;;4896570;29;20204;-90
2021/08/15 17:04:28;;;;;;;5.28;3.65;;;26.40;60.90;;;;;;4882942;29;20240;-89
2021/08/15 17:06:59;;;;;;;4.53;3.38;;;26.40;60.80;;;;;;4873919;29;20204;-88
2021/08/15 17:12:34;;;;;;;4.22;3.65;;;26.30;60.70;;;;;;4872669;29;20376;-90
2021/08/15 17:21:02;;;;;;;5.68;3.30;;;25.90;62.10;;;;;;4878280;29;20218;-87
2021/08/15 17:23:41;;;;;;;5.43;3.75;;;25.80;62.20;;;;;;4886668;29;20200;-89
2021/08/15 17:26:13;;;;;;;3.70;3.30;;;25.70;61.90;;;;;;4883352;29;20276;-86
2021/08/15 17:28:43;;;;;;;4.90;3.65;;;25.50;62.20;;;;;;4878701;29;20643;-87
2021/08/15 17:31:14;;;;;;;4.07;3.33;;;25.50;62.70;;;;;;4885013;29;20236;-88
2021/08/15 17:33:50;;;;;;;4.20;3.63;;;25.30;62.50;;;;;;4870667;29;20209;-89
2021/08/15 17:36:20;;;;;;;4.20;3.38;;;25.20;63.00;;;;;;4881666;29;20220;-88